sensor_id;sensor_type;location;lat;lon;timestamp;P1;durP1;ratioP1;P2;durP2;ratioP2
11996;SDS011;6058;48.704;9.474;2022-08-25T00:00:34;2.00;;;1.88;;
11996;SDS011;6058;48.704;9.474;2022-08-25T00:03:01;2.30;;;2.20;;
11996;SDS011;6058;48.704;9.474;2022-08-25T00:05:29;3.83;;;2.20;;
11996;SDS011;6058;48.704;9.474;2022-08-25T00:07:56;3.47;;;2.07;;
11996;SDS011;6058;48.704;9.474;2022-08-25T00:10:23;2.87;;;2.10;;
11996;SDS011;6058;48.704;9.474;2022-08-25T00:12:51;1.85;;;1.75;;
11996;SDS011;6058;48.704;9.474;2022-08-25T00:15:18;3.10;;;2.27;;
11996;SDS011;6058;48.704;9.474;2022-08-25T00:17:49;3.17;;;2.27;;
11996;SDS011;6058;48.704;9.474;2022-08-25T00:20:16;3.13;;;2.30;;
11996;SDS011;6058;48.704;9.474;2022-08-25T00:22:43;2.43;;;2.23;;
11996;SDS011;6058;48.704;9.474;2022-08-25T00:25:10;2.87;;;1.93;;
11996;SDS011;6058;48.704;9.474;2022-08-25T00:27:37;2.30;;;2.20;;
11996;SDS011;6058;48.704;9.474;2022-08-25T00:30:05;2.10;;;2.00;;
11996;SDS011;6058;48.704;9.474;2022-08-25T00:32:32;2.53;;;2.10;;
11996;SDS011;6058;48.704;9.474;2022-08-25T00:35:01;2.37;;;2.17;;
11996;SDS011;6058;48.704;9.474;2022-08-25T00:37:28;3.07;;;2.53;;
11996;SDS011;6058;48.704;9.474;2022-08-25T00:39:55;6.10;;;2.50;;
11996;SDS011;6058;48.704;9.474;2022-08-25T00:42:22;4.77;;;2.03;;
11996;SDS011;6058;48.704;9.474;2022-08-25T00:44:50;3.47;;;2.07;;
11996;SDS011;6058;48.704;9.474;2022-08-25T00:47:17;2.20;;;2.00;;
11996;SDS011;6058;48.704;9.474;2022-08-25T00:49:45;2.13;;;1.90;;
11996;SDS011;6058;48.704;9.474;2022-08-25T00:52:15;1.97;;;1.83;;
11996;SDS011;6058;48.704;9.474;2022-08-25T00:57:12;12.03;;;2.40;;
11996;SDS011;6058;48.704;9.474;2022-08-25T00:59:40;3.33;;;2.03;;
11996;SDS011;6058;48.704;9.474;2022-08-25T01:02:08;2.03;;;1.90;;
11996;SDS011;6058;48.704;9.474;2022-08-25T01:04:36;2.07;;;1.97;;
11996;SDS011;6058;48.704;9.474;2022-08-25T01:07:03;2.40;;;2.00;;
11996;SDS011;6058;48.704;9.474;2022-08-25T01:09:32;2.57;;;2.10;;
11996;SDS011;6058;48.704;9.474;2022-08-25T01:12:00;2.90;;;2.53;;
11996;SDS011;6058;48.704;9.474;2022-08-25T01:14:27;4.30;;;2.20;;
11996;SDS011;6058;48.704;9.474;2022-08-25T01:16:56;2.13;;;2.00;;
11996;SDS011;6058;48.704;9.474;2022-08-25T01:19:23;3.03;;;2.10;;
11996;SDS011;6058;48.704;9.474;2022-08-25T01:21:53;2.13;;;2.03;;
11996;SDS011;6058;48.704;9.474;2022-08-25T01:24:23;4.30;;;2.17;;
11996;SDS011;6058;48.704;9.474;2022-08-25T01:26:51;2.67;;;2.17;;
11996;SDS011;6058;48.704;9.474;2022-08-25T01:29:18;1.70;;;1.60;;
11996;SDS011;6058;48.704;9.474;2022-08-25T01:31:46;4.17;;;2.20;;
11996;SDS011;6058;48.704;9.474;2022-08-25T01:34:13;2.47;;;2.27;;
11996;SDS011;6058;48.704;9.474;2022-08-25T01:36:41;2.00;;;1.90;;
11996;SDS011;6058;48.704;9.474;2022-08-25T01:39:10;3.13;;;2.23;;
11996;SDS011;6058;48.704;9.474;2022-08-25T01:41:39;2.10;;;2.00;;
11996;SDS011;6058;48.704;9.474;2022-08-25T01:44:07;2.23;;;2.03;;
11996;SDS011;6058;48.704;9.474;2022-08-25T01:46:34;3.63;;;2.40;;
11996;SDS011;6058;48.704;9.474;2022-08-25T01:49:02;2.07;;;1.97;;
11996;SDS011;6058;48.704;9.474;2022-08-25T01:51:32;3.90;;;2.40;;
11996;SDS011;6058;48.704;9.474;2022-08-25T01:53:59;3.03;;;2.43;;
11996;SDS011;6058;48.704;9.474;2022-08-25T01:56:28;3.17;;;2.10;;
11996;SDS011;6058;48.704;9.474;2022-08-25T01:58:55;2.90;;;2.33;;
11996;SDS011;6058;48.704;9.474;2022-08-25T02:01:23;2.50;;;2.30;;
11996;SDS011;6058;48.704;9.474;2022-08-25T02:03:51;2.97;;;2.30;;
11996;SDS011;6058;48.704;9.474;2022-08-25T02:06:19;2.60;;;2.40;;
11996;SDS011;6058;48.704;9.474;2022-08-25T02:08:49;3.87;;;2.53;;
11996;SDS011;6058;48.704;9.474;2022-08-25T02:11:16;2.17;;;2.03;;
11996;SDS011;6058;48.704;9.474;2022-08-25T02:13:45;2.77;;;2.50;;
11996;SDS011;6058;48.704;9.474;2022-08-25T02:16:14;3.07;;;2.30;;
11996;SDS011;6058;48.704;9.474;2022-08-25T02:18:42;2.40;;;2.20;;
11996;SDS011;6058;48.704;9.474;2022-08-25T02:21:10;2.00;;;1.90;;
11996;SDS011;6058;48.704;9.474;2022-08-25T02:23:38;2.67;;;2.47;;
11996;SDS011;6058;48.704;9.474;2022-08-25T02:26:06;2.83;;;2.63;;
11996;SDS011;6058;48.704;9.474;2022-08-25T02:28:34;3.30;;;2.83;;
11996;SDS011;6058;48.704;9.474;2022-08-25T02:31:02;3.17;;;2.60;;
11996;SDS011;6058;48.704;9.474;2022-08-25T02:33:29;3.03;;;2.83;;
11996;SDS011;6058;48.704;9.474;2022-08-25T02:35:57;4.00;;;2.80;;
11996;SDS011;6058;48.704;9.474;2022-08-25T02:38:24;6.10;;;2.70;;
11996;SDS011;6058;48.704;9.474;2022-08-25T02:40:52;5.33;;;2.70;;
11996;SDS011;6058;48.704;9.474;2022-08-25T02:43:19;4.33;;;3.10;;
11996;SDS011;6058;48.704;9.474;2022-08-25T02:45:46;3.30;;;2.87;;
11996;SDS011;6058;48.704;9.474;2022-08-25T02:48:15;3.17;;;2.87;;
11996;SDS011;6058;48.704;9.474;2022-08-25T02:50:45;3.20;;;2.93;;
11996;SDS011;6058;48.704;9.474;2022-08-25T02:53:12;2.90;;;2.37;;
11996;SDS011;6058;48.704;9.474;2022-08-25T02:55:39;2.53;;;2.33;;
11996;SDS011;6058;48.704;9.474;2022-08-25T02:58:06;3.07;;;2.77;;
11996;SDS011;6058;48.704;9.474;2022-08-25T03:00:34;4.63;;;3.00;;
11996;SDS011;6058;48.704;9.474;2022-08-25T03:03:01;2.73;;;2.53;;
11996;SDS011;6058;48.704;9.474;2022-08-25T03:05:30;3.00;;;2.80;;
11996;SDS011;6058;48.704;9.474;2022-08-25T03:07:57;2.63;;;2.43;;
11996;SDS011;6058;48.704;9.474;2022-08-25T03:10:25;2.93;;;2.67;;
11996;SDS011;6058;48.704;9.474;2022-08-25T03:12:52;2.80;;;2.60;;
11996;SDS011;6058;48.704;9.474;2022-08-25T03:15:19;2.73;;;2.53;;
11996;SDS011;6058;48.704;9.474;2022-08-25T03:17:49;3.27;;;2.67;;
11996;SDS011;6058;48.704;9.474;2022-08-25T03:20:17;2.97;;;2.50;;
11996;SDS011;6058;48.704;9.474;2022-08-25T03:22:46;2.90;;;2.60;;
11996;SDS011;6058;48.704;9.474;2022-08-25T03:25:13;3.10;;;2.80;;
11996;SDS011;6058;48.704;9.474;2022-08-25T03:27:59;3.80;;;2.60;;
11996;SDS011;6058;48.704;9.474;2022-08-25T03:30:26;3.00;;;2.63;;
11996;SDS011;6058;48.704;9.474;2022-08-25T03:32:53;2.90;;;2.70;;
11996;SDS011;6058;48.704;9.474;2022-08-25T03:35:20;3.40;;;2.33;;
11996;SDS011;6058;48.704;9.474;2022-08-25T03:37:49;4.27;;;2.97;;
11996;SDS011;6058;48.704;9.474;2022-08-25T03:40:16;2.70;;;2.50;;
11996;SDS011;6058;48.704;9.474;2022-08-25T03:42:43;4.80;;;2.80;;
11996;SDS011;6058;48.704;9.474;2022-08-25T03:45:12;2.97;;;2.70;;
11996;SDS011;6058;48.704;9.474;2022-08-25T03:47:40;3.20;;;2.90;;
11996;SDS011;6058;48.704;9.474;2022-08-25T03:50:09;4.47;;;3.10;;
11996;SDS011;6058;48.704;9.474;2022-08-25T03:52:37;2.57;;;2.37;;
11996;SDS011;6058;48.704;9.474;2022-08-25T03:55:07;3.03;;;2.80;;
11996;SDS011;6058;48.704;9.474;2022-08-25T03:57:35;3.40;;;2.80;;
11996;SDS011;6058;48.704;9.474;2022-08-25T04:00:02;3.03;;;2.73;;
11996;SDS011;6058;48.704;9.474;2022-08-25T04:02:30;3.43;;;2.50;;
11996;SDS011;6058;48.704;9.474;2022-08-25T04:04:57;3.33;;;3.10;;
11996;SDS011;6058;48.704;9.474;2022-08-25T04:07:25;3.07;;;2.60;;
11996;SDS011;6058;48.704;9.474;2022-08-25T04:09:52;3.37;;;3.07;;
11996;SDS011;6058;48.704;9.474;2022-08-25T04:12:21;3.57;;;3.17;;
11996;SDS011;6058;48.704;9.474;2022-08-25T04:14:49;2.97;;;2.70;;
11996;SDS011;6058;48.704;9.474;2022-08-25T04:17:16;2.53;;;2.33;;
11996;SDS011;6058;48.704;9.474;2022-08-25T04:19:43;2.97;;;2.73;;
11996;SDS011;6058;48.704;9.474;2022-08-25T04:22:10;6.50;;;3.37;;
11996;SDS011;6058;48.704;9.474;2022-08-25T04:24:37;3.10;;;2.90;;
11996;SDS011;6058;48.704;9.474;2022-08-25T04:27:05;3.13;;;2.80;;
11996;SDS011;6058;48.704;9.474;2022-08-25T04:29:33;3.60;;;3.17;;
11996;SDS011;6058;48.704;9.474;2022-08-25T04:32:00;4.10;;;2.93;;
11996;SDS011;6058;48.704;9.474;2022-08-25T04:34:27;2.97;;;2.67;;
11996;SDS011;6058;48.704;9.474;2022-08-25T04:36:55;3.43;;;3.13;;
11996;SDS011;6058;48.704;9.474;2022-08-25T04:39:22;4.60;;;2.80;;
11996;SDS011;6058;48.704;9.474;2022-08-25T04:41:49;3.77;;;3.47;;
11996;SDS011;6058;48.704;9.474;2022-08-25T04:44:17;3.03;;;2.80;;
11996;SDS011;6058;48.704;9.474;2022-08-25T04:46:52;4.83;;;3.03;;
11996;SDS011;6058;48.704;9.474;2022-08-25T04:49:19;2.93;;;2.73;;
11996;SDS011;6058;48.704;9.474;2022-08-25T04:51:47;3.30;;;3.00;;
11996;SDS011;6058;48.704;9.474;2022-08-25T04:54:15;5.90;;;3.07;;
11996;SDS011;6058;48.704;9.474;2022-08-25T04:56:46;4.23;;;3.83;;
11996;SDS011;6058;48.704;9.474;2022-08-25T04:59:14;3.97;;;3.27;;
11996;SDS011;6058;48.704;9.474;2022-08-25T05:01:42;3.30;;;3.03;;
11996;SDS011;6058;48.704;9.474;2022-08-25T05:04:12;3.27;;;3.00;;
11996;SDS011;6058;48.704;9.474;2022-08-25T05:06:40;4.37;;;3.30;;
11996;SDS011;6058;48.704;9.474;2022-08-25T05:09:08;3.70;;;3.40;;
11996;SDS011;6058;48.704;9.474;2022-08-25T05:11:35;4.10;;;3.70;;
11996;SDS011;6058;48.704;9.474;2022-08-25T05:14:03;4.17;;;3.50;;
11996;SDS011;6058;48.704;9.474;2022-08-25T05:16:35;3.30;;;3.00;;
11996;SDS011;6058;48.704;9.474;2022-08-25T05:19:02;3.60;;;3.30;;
11996;SDS011;6058;48.704;9.474;2022-08-25T05:21:31;4.77;;;3.47;;
11996;SDS011;6058;48.704;9.474;2022-08-25T05:23:59;4.57;;;3.40;;
11996;SDS011;6058;48.704;9.474;2022-08-25T05:26:27;5.33;;;3.33;;
11996;SDS011;6058;48.704;9.474;2022-08-25T05:28:55;4.07;;;3.27;;
11996;SDS011;6058;48.704;9.474;2022-08-25T05:31:23;4.50;;;3.60;;
11996;SDS011;6058;48.704;9.474;2022-08-25T05:33:51;3.57;;;3.20;;
11996;SDS011;6058;48.704;9.474;2022-08-25T05:36:19;3.73;;;3.20;;
11996;SDS011;6058;48.704;9.474;2022-08-25T05:38:47;3.93;;;3.60;;
11996;SDS011;6058;48.704;9.474;2022-08-25T05:41:31;4.50;;;4.10;;
11996;SDS011;6058;48.704;9.474;2022-08-25T05:43:58;6.20;;;3.70;;
11996;SDS011;6058;48.704;9.474;2022-08-25T05:46:28;4.40;;;4.00;;
11996;SDS011;6058;48.704;9.474;2022-08-25T05:48:55;5.87;;;4.17;;
11996;SDS011;6058;48.704;9.474;2022-08-25T05:51:22;5.03;;;3.87;;
11996;SDS011;6058;48.704;9.474;2022-08-25T05:53:51;4.47;;;3.97;;
11996;SDS011;6058;48.704;9.474;2022-08-25T05:56:18;5.03;;;4.07;;
11996;SDS011;6058;48.704;9.474;2022-08-25T05:58:46;5.50;;;4.00;;
11996;SDS011;6058;48.704;9.474;2022-08-25T06:01:20;4.43;;;3.67;;
11996;SDS011;6058;48.704;9.474;2022-08-25T06:04:05;4.83;;;4.40;;
11996;SDS011;6058;48.704;9.474;2022-08-25T06:06:32;6.27;;;4.93;;
11996;SDS011;6058;48.704;9.474;2022-08-25T06:09:02;4.30;;;3.90;;
11996;SDS011;6058;48.704;9.474;2022-08-25T06:11:32;4.10;;;3.70;;
11996;SDS011;6058;48.704;9.474;2022-08-25T06:13:59;5.33;;;4.00;;
11996;SDS011;6058;48.704;9.474;2022-08-25T06:16:26;4.20;;;3.83;;
11996;SDS011;6058;48.704;9.474;2022-08-25T06:18:53;5.10;;;3.87;;
11996;SDS011;6058;48.704;9.474;2022-08-25T06:21:21;7.40;;;4.43;;
11996;SDS011;6058;48.704;9.474;2022-08-25T06:23:48;4.17;;;3.77;;
11996;SDS011;6058;48.704;9.474;2022-08-25T06:26:17;4.87;;;3.60;;
11996;SDS011;6058;48.704;9.474;2022-08-25T06:28:44;4.00;;;3.60;;
11996;SDS011;6058;48.704;9.474;2022-08-25T06:31:11;4.90;;;3.77;;
11996;SDS011;6058;48.704;9.474;2022-08-25T06:33:38;5.30;;;4.33;;
11996;SDS011;6058;48.704;9.474;2022-08-25T06:36:06;4.50;;;4.10;;
11996;SDS011;6058;48.704;9.474;2022-08-25T06:38:33;5.33;;;4.23;;
11996;SDS011;6058;48.704;9.474;2022-08-25T06:41:01;4.37;;;3.93;;
11996;SDS011;6058;48.704;9.474;2022-08-25T06:43:29;5.07;;;4.40;;
11996;SDS011;6058;48.704;9.474;2022-08-25T06:45:57;8.13;;;4.73;;
11996;SDS011;6058;48.704;9.474;2022-08-25T06:48:24;8.20;;;5.20;;
11996;SDS011;6058;48.704;9.474;2022-08-25T06:50:51;5.87;;;4.93;;
11996;SDS011;6058;48.704;9.474;2022-08-25T06:53:18;7.03;;;5.13;;
11996;SDS011;6058;48.704;9.474;2022-08-25T06:58:20;8.70;;;5.03;;
11996;SDS011;6058;48.704;9.474;2022-08-25T07:03:59;6.73;;;5.03;;
11996;SDS011;6058;48.704;9.474;2022-08-25T07:09:09;6.30;;;4.97;;
11996;SDS011;6058;48.704;9.474;2022-08-25T07:11:48;5.35;;;4.85;;
11996;SDS011;6058;48.704;9.474;2022-08-25T07:14:34;5.63;;;4.90;;
11996;SDS011;6058;48.704;9.474;2022-08-25T07:20:24;5.57;;;4.85;;
11996;SDS011;6058;48.704;9.474;2022-08-25T07:23:01;9.00;;;4.90;;
11996;SDS011;6058;48.704;9.474;2022-08-25T07:25:45;5.85;;;4.63;;
11996;SDS011;6058;48.704;9.474;2022-08-25T07:28:21;4.72;;;4.32;;
11996;SDS011;6058;48.704;9.474;2022-08-25T07:30:58;4.68;;;4.07;;
11996;SDS011;6058;48.704;9.474;2022-08-25T07:33:48;6.30;;;4.90;;
11996;SDS011;6058;48.704;9.474;2022-08-25T07:36:41;16.20;;;4.63;;
11996;SDS011;6058;48.704;9.474;2022-08-25T07:39:30;5.72;;;4.55;;
11996;SDS011;6058;48.704;9.474;2022-08-25T07:42:19;6.38;;;4.25;;
11996;SDS011;6058;48.704;9.474;2022-08-25T07:45:03;4.63;;;3.95;;
11996;SDS011;6058;48.704;9.474;2022-08-25T07:47:40;5.15;;;4.28;;
11996;SDS011;6058;48.704;9.474;2022-08-25T07:50:21;4.97;;;4.53;;
11996;SDS011;6058;48.704;9.474;2022-08-25T07:53:05;4.50;;;4.10;;
11996;SDS011;6058;48.704;9.474;2022-08-25T07:55:46;7.05;;;4.40;;
11996;SDS011;6058;48.704;9.474;2022-08-25T07:58:45;6.75;;;4.32;;
11996;SDS011;6058;48.704;9.474;2022-08-25T08:01:34;5.78;;;4.07;;
11996;SDS011;6058;48.704;9.474;2022-08-25T08:04:18;4.47;;;4.07;;
11996;SDS011;6058;48.704;9.474;2022-08-25T08:06:57;4.82;;;4.32;;
11996;SDS011;6058;48.704;9.474;2022-08-25T08:09:43;4.40;;;3.95;;
11996;SDS011;6058;48.704;9.474;2022-08-25T08:12:25;3.63;;;3.33;;
11996;SDS011;6058;48.704;9.474;2022-08-25T08:14:59;5.47;;;4.28;;
11996;SDS011;6058;48.704;9.474;2022-08-25T08:20:14;7.15;;;4.00;;
11996;SDS011;6058;48.704;9.474;2022-08-25T08:26:06;4.07;;;3.78;;
11996;SDS011;6058;48.704;9.474;2022-08-25T08:29:06;4.32;;;3.92;;
11996;SDS011;6058;48.704;9.474;2022-08-25T08:32:09;5.10;;;4.22;;
11996;SDS011;6058;48.704;9.474;2022-08-25T08:35:13;4.90;;;4.40;;
11996;SDS011;6058;48.704;9.474;2022-08-25T08:37:59;5.07;;;4.00;;
11996;SDS011;6058;48.704;9.474;2022-08-25T08:40:36;4.60;;;3.55;;
11996;SDS011;6058;48.704;9.474;2022-08-25T08:43:37;23.08;;;5.57;;
11996;SDS011;6058;48.704;9.474;2022-08-25T08:46:35;5.38;;;4.65;;
11996;SDS011;6058;48.704;9.474;2022-08-25T08:49:24;9.77;;;4.32;;
11996;SDS011;6058;48.704;9.474;2022-08-25T08:52:09;4.07;;;3.78;;
11996;SDS011;6058;48.704;9.474;2022-08-25T08:54:57;4.30;;;3.90;;
11996;SDS011;6058;48.704;9.474;2022-08-25T08:58:07;4.05;;;3.65;;
11996;SDS011;6058;48.704;9.474;2022-08-25T09:01:01;5.88;;;4.22;;
11996;SDS011;6058;48.704;9.474;2022-08-25T09:03:43;4.43;;;3.88;;
11996;SDS011;6058;48.704;9.474;2022-08-25T09:06:40;6.88;;;3.97;;
11996;SDS011;6058;48.704;9.474;2022-08-25T09:09:40;5.25;;;3.72;;
11996;SDS011;6058;48.704;9.474;2022-08-25T09:12:33;11.38;;;4.60;;
11996;SDS011;6058;48.704;9.474;2022-08-25T09:15:11;6.13;;;3.78;;
11996;SDS011;6058;48.704;9.474;2022-08-25T09:18:19;5.78;;;3.75;;
11996;SDS011;6058;48.704;9.474;2022-08-25T09:21:08;4.57;;;4.00;;
11996;SDS011;6058;48.704;9.474;2022-08-25T09:24:11;3.90;;;3.28;;
11996;SDS011;6058;48.704;9.474;2022-08-25T09:27:19;5.13;;;3.80;;
11996;SDS011;6058;48.704;9.474;2022-08-25T09:29:56;9.60;;;4.10;;
11996;SDS011;6058;48.704;9.474;2022-08-25T09:32:33;4.60;;;4.00;;
11996;SDS011;6058;48.704;9.474;2022-08-25T09:35:28;4.57;;;3.88;;
11996;SDS011;6058;48.704;9.474;2022-08-25T09:38:04;4.32;;;3.92;;
11996;SDS011;6058;48.704;9.474;2022-08-25T09:40:53;4.32;;;3.90;;
11996;SDS011;6058;48.704;9.474;2022-08-25T09:43:44;3.80;;;3.50;;
11996;SDS011;6058;48.704;9.474;2022-08-25T09:46:48;4.30;;;3.65;;
11996;SDS011;6058;48.704;9.474;2022-08-25T09:49:30;4.00;;;3.63;;
11996;SDS011;6058;48.704;9.474;2022-08-25T09:52:25;6.47;;;3.97;;
11996;SDS011;6058;48.704;9.474;2022-08-25T09:55:00;8.43;;;4.45;;
11996;SDS011;6058;48.704;9.474;2022-08-25T09:57:52;4.30;;;3.90;;
11996;SDS011;6058;48.704;9.474;2022-08-25T10:06:56;4.05;;;3.67;;
11996;SDS011;6058;48.704;9.474;2022-08-25T10:09:50;5.05;;;3.47;;
11996;SDS011;6058;48.704;9.474;2022-08-25T10:12:28;4.82;;;3.50;;
11996;SDS011;6058;48.704;9.474;2022-08-25T10:15:07;4.15;;;3.72;;
11996;SDS011;6058;48.704;9.474;2022-08-25T10:17:57;3.60;;;3.30;;
11996;SDS011;6058;48.704;9.474;2022-08-25T10:21:03;4.53;;;3.28;;
11996;SDS011;6058;48.704;9.474;2022-08-25T10:23:51;3.75;;;3.45;;
11996;SDS011;6058;48.704;9.474;2022-08-25T10:27:01;4.40;;;4.00;;
11996;SDS011;6058;48.704;9.474;2022-08-25T10:29:50;3.70;;;3.40;;
11996;SDS011;6058;48.704;9.474;2022-08-25T10:35:36;5.95;;;3.92;;
11996;SDS011;6058;48.704;9.474;2022-08-25T10:38:37;5.43;;;4.00;;
11996;SDS011;6058;48.704;9.474;2022-08-25T10:41:32;3.47;;;2.63;;
11996;SDS011;6058;48.704;9.474;2022-08-25T10:44:25;3.15;;;2.85;;
11996;SDS011;6058;48.704;9.474;2022-08-25T10:47:16;3.78;;;2.97;;
11996;SDS011;6058;48.704;9.474;2022-08-25T10:50:00;3.60;;;2.42;;
11996;SDS011;6058;48.704;9.474;2022-08-25T10:52:53;3.13;;;2.90;;
11996;SDS011;6058;48.704;9.474;2022-08-25T10:55:43;3.80;;;2.53;;
11996;SDS011;6058;48.704;9.474;2022-08-25T10:58:24;3.13;;;2.92;;
11996;SDS011;6058;48.704;9.474;2022-08-25T11:01:28;3.17;;;2.90;;
11996;SDS011;6058;48.704;9.474;2022-08-25T11:04:05;3.17;;;2.78;;
11996;SDS011;6058;48.704;9.474;2022-08-25T11:06:57;2.97;;;2.70;;
11996;SDS011;6058;48.704;9.474;2022-08-25T11:09:42;4.60;;;2.35;;
11996;SDS011;6058;48.704;9.474;2022-08-25T11:12:37;2.67;;;2.47;;
11996;SDS011;6058;48.704;9.474;2022-08-25T11:15:18;3.17;;;2.78;;
11996;SDS011;6058;48.704;9.474;2022-08-25T11:18:09;2.95;;;2.75;;
11996;SDS011;6058;48.704;9.474;2022-08-25T11:21:04;6.75;;;2.63;;
11996;SDS011;6058;48.704;9.474;2022-08-25T11:24:05;3.03;;;2.80;;
11996;SDS011;6058;48.704;9.474;2022-08-25T11:27:11;3.20;;;2.92;;
11996;SDS011;6058;48.704;9.474;2022-08-25T11:29:53;4.00;;;2.80;;
11996;SDS011;6058;48.704;9.474;2022-08-25T11:32:43;3.08;;;2.70;;
11996;SDS011;6058;48.704;9.474;2022-08-25T11:35:38;3.75;;;2.50;;
11996;SDS011;6058;48.704;9.474;2022-08-25T11:38:35;3.03;;;2.80;;
11996;SDS011;6058;48.704;9.474;2022-08-25T11:41:22;2.92;;;2.58;;
11996;SDS011;6058;48.704;9.474;2022-08-25T11:49:44;3.10;;;2.90;;
11996;SDS011;6058;48.704;9.474;2022-08-25T11:55:18;2.75;;;2.55;;
11996;SDS011;6058;48.704;9.474;2022-08-25T12:00:53;3.38;;;3.08;;
11996;SDS011;6058;48.704;9.474;2022-08-25T12:06:28;2.95;;;2.72;;
11996;SDS011;6058;48.704;9.474;2022-08-25T12:09:20;3.40;;;3.00;;
11996;SDS011;6058;48.704;9.474;2022-08-25T12:11:58;2.90;;;2.70;;
11996;SDS011;6058;48.704;9.474;2022-08-25T12:14:53;3.10;;;2.60;;
11996;SDS011;6058;48.704;9.474;2022-08-25T12:20:20;6.00;;;2.63;;
11996;SDS011;6058;48.704;9.474;2022-08-25T12:23:20;2.65;;;2.45;;
11996;SDS011;6058;48.704;9.474;2022-08-25T12:26:03;3.10;;;2.88;;
11996;SDS011;6058;48.704;9.474;2022-08-25T12:33:43;3.15;;;2.53;;
11996;SDS011;6058;48.704;9.474;2022-08-25T12:36:34;3.15;;;2.55;;
11996;SDS011;6058;48.704;9.474;2022-08-25T12:39:18;5.60;;;2.75;;
11996;SDS011;6058;48.704;9.474;2022-08-25T12:41:58;2.85;;;2.47;;
11996;SDS011;6058;48.704;9.474;2022-08-25T12:44:42;2.63;;;2.42;;
11996;SDS011;6058;48.704;9.474;2022-08-25T12:47:30;2.70;;;2.50;;
11996;SDS011;6058;48.704;9.474;2022-08-25T12:56:00;3.03;;;2.63;;
11996;SDS011;6058;48.704;9.474;2022-08-25T12:58:32;2.92;;;2.63;;
11996;SDS011;6058;48.704;9.474;2022-08-25T13:01:07;2.80;;;2.60;;
11996;SDS011;6058;48.704;9.474;2022-08-25T13:03:43;2.75;;;2.55;;
11996;SDS011;6058;48.704;9.474;2022-08-25T13:06:15;3.40;;;2.80;;
11996;SDS011;6058;48.704;9.474;2022-08-25T13:08:49;4.00;;;2.60;;
11996;SDS011;6058;48.704;9.474;2022-08-25T13:11:22;3.00;;;2.80;;
11996;SDS011;6058;48.704;9.474;2022-08-25T13:13:53;3.05;;;2.72;;
11996;SDS011;6058;48.704;9.474;2022-08-25T13:16:25;2.60;;;2.40;;
11996;SDS011;6058;48.704;9.474;2022-08-25T13:18:53;3.72;;;2.70;;
11996;SDS011;6058;48.704;9.474;2022-08-25T13:21:23;2.83;;;2.63;;
11996;SDS011;6058;48.704;9.474;2022-08-25T13:23:55;2.92;;;2.72;;
11996;SDS011;6058;48.704;9.474;2022-08-25T13:26:24;2.88;;;2.60;;
11996;SDS011;6058;48.704;9.474;2022-08-25T13:28:52;2.88;;;2.60;;
11996;SDS011;6058;48.704;9.474;2022-08-25T13:31:22;5.65;;;2.67;;
11996;SDS011;6058;48.704;9.474;2022-08-25T13:33:53;3.13;;;2.60;;
11996;SDS011;6058;48.704;9.474;2022-08-25T13:36:22;3.63;;;2.75;;
11996;SDS011;6058;48.704;9.474;2022-08-25T13:39:14;2.70;;;2.50;;
11996;SDS011;6058;48.704;9.474;2022-08-25T13:41:46;6.05;;;2.85;;
11996;SDS011;6058;48.704;9.474;2022-08-25T13:44:15;4.00;;;2.63;;
11996;SDS011;6058;48.704;9.474;2022-08-25T13:46:44;3.40;;;2.70;;
11996;SDS011;6058;48.704;9.474;2022-08-25T13:49:11;3.55;;;2.78;;
11996;SDS011;6058;48.704;9.474;2022-08-25T13:51:48;5.50;;;2.92;;
11996;SDS011;6058;48.704;9.474;2022-08-25T13:54:22;3.08;;;2.88;;
11996;SDS011;6058;48.704;9.474;2022-08-25T13:56:51;2.78;;;2.58;;
11996;SDS011;6058;48.704;9.474;2022-08-25T13:59:19;3.40;;;2.90;;
11996;SDS011;6058;48.704;9.474;2022-08-25T14:01:47;2.90;;;2.70;;
11996;SDS011;6058;48.704;9.474;2022-08-25T14:04:20;3.45;;;2.78;;
11996;SDS011;6058;48.704;9.474;2022-08-25T14:06:48;2.70;;;2.50;;
11996;SDS011;6058;48.704;9.474;2022-08-25T14:09:36;2.50;;;2.30;;
11996;SDS011;6058;48.704;9.474;2022-08-25T14:12:05;3.72;;;2.97;;
11996;SDS011;6058;48.704;9.474;2022-08-25T14:14:33;2.67;;;2.30;;
11996;SDS011;6058;48.704;9.474;2022-08-25T14:17:02;2.97;;;2.33;;
11996;SDS011;6058;48.704;9.474;2022-08-25T14:19:30;3.75;;;2.88;;
11996;SDS011;6058;48.704;9.474;2022-08-25T14:21:57;2.90;;;2.70;;
11996;SDS011;6058;48.704;9.474;2022-08-25T14:24:26;2.83;;;2.63;;
11996;SDS011;6058;48.704;9.474;2022-08-25T14:26:54;2.70;;;2.50;;
11996;SDS011;6058;48.704;9.474;2022-08-25T14:29:22;2.90;;;2.70;;
11996;SDS011;6058;48.704;9.474;2022-08-25T14:31:50;2.90;;;2.70;;
11996;SDS011;6058;48.704;9.474;2022-08-25T14:34:18;2.88;;;2.67;;
11996;SDS011;6058;48.704;9.474;2022-08-25T14:36:45;2.75;;;2.55;;
11996;SDS011;6058;48.704;9.474;2022-08-25T14:39:14;2.75;;;2.50;;
11996;SDS011;6058;48.704;9.474;2022-08-25T14:41:41;2.60;;;2.40;;
11996;SDS011;6058;48.704;9.474;2022-08-25T14:44:10;3.10;;;2.90;;
11996;SDS011;6058;48.704;9.474;2022-08-25T14:46:39;2.90;;;2.47;;
11996;SDS011;6058;48.704;9.474;2022-08-25T14:49:09;2.60;;;2.40;;
11996;SDS011;6058;48.704;9.474;2022-08-25T14:51:37;2.40;;;2.20;;
11996;SDS011;6058;48.704;9.474;2022-08-25T14:54:06;4.00;;;2.70;;
11996;SDS011;6058;48.704;9.474;2022-08-25T14:56:33;3.00;;;2.67;;
11996;SDS011;6058;48.704;9.474;2022-08-25T14:59:01;3.20;;;2.90;;
11996;SDS011;6058;48.704;9.474;2022-08-25T15:01:29;3.75;;;2.58;;
11996;SDS011;6058;48.704;9.474;2022-08-25T15:03:59;3.65;;;2.38;;
11996;SDS011;6058;48.704;9.474;2022-08-25T15:06:28;4.88;;;2.67;;
11996;SDS011;6058;48.704;9.474;2022-08-25T15:08:55;3.28;;;2.78;;
11996;SDS011;6058;48.704;9.474;2022-08-25T15:11:35;2.17;;;2.08;;
11996;SDS011;6058;48.704;9.474;2022-08-25T15:14:03;2.40;;;2.20;;
11996;SDS011;6058;48.704;9.474;2022-08-25T15:16:31;2.60;;;2.40;;
11996;SDS011;6058;48.704;9.474;2022-08-25T15:19:00;2.55;;;2.33;;
11996;SDS011;6058;48.704;9.474;2022-08-25T15:21:28;2.55;;;2.35;;
11996;SDS011;6058;48.704;9.474;2022-08-25T15:23:56;2.50;;;2.30;;
11996;SDS011;6058;48.704;9.474;2022-08-25T15:26:24;2.40;;;2.20;;
11996;SDS011;6058;48.704;9.474;2022-08-25T15:28:51;2.78;;;2.58;;
11996;SDS011;6058;48.704;9.474;2022-08-25T15:31:19;3.55;;;2.70;;
11996;SDS011;6058;48.704;9.474;2022-08-25T15:33:47;2.40;;;2.20;;
11996;SDS011;6058;48.704;9.474;2022-08-25T15:36:17;5.60;;;2.40;;
11996;SDS011;6058;48.704;9.474;2022-08-25T15:38:45;3.78;;;2.38;;
11996;SDS011;6058;48.704;9.474;2022-08-25T15:41:12;2.55;;;2.35;;
11996;SDS011;6058;48.704;9.474;2022-08-25T15:43:39;3.50;;;2.60;;
11996;SDS011;6058;48.704;9.474;2022-08-25T15:46:07;2.30;;;2.10;;
11996;SDS011;6058;48.704;9.474;2022-08-25T15:48:38;2.55;;;2.35;;
11996;SDS011;6058;48.704;9.474;2022-08-25T15:51:05;2.80;;;2.60;;
11996;SDS011;6058;48.704;9.474;2022-08-25T15:53:34;5.63;;;2.70;;
11996;SDS011;6058;48.704;9.474;2022-08-25T15:56:03;2.95;;;2.10;;
11996;SDS011;6058;48.704;9.474;2022-08-25T15:58:30;4.20;;;2.42;;
11996;SDS011;6058;48.704;9.474;2022-08-25T16:00:59;2.70;;;2.50;;
11996;SDS011;6058;48.704;9.474;2022-08-25T16:03:26;3.85;;;2.92;;
11996;SDS011;6058;48.704;9.474;2022-08-25T16:05:53;2.78;;;2.50;;
11996;SDS011;6058;48.704;9.474;2022-08-25T16:08:20;2.58;;;2.38;;
11996;SDS011;6058;48.704;9.474;2022-08-25T16:10:48;2.90;;;2.28;;
11996;SDS011;6058;48.704;9.474;2022-08-25T16:13:16;2.50;;;2.30;;
11996;SDS011;6058;48.704;9.474;2022-08-25T16:15:45;3.95;;;2.22;;
11996;SDS011;6058;48.704;9.474;2022-08-25T16:18:13;2.78;;;2.40;;
11996;SDS011;6058;48.704;9.474;2022-08-25T16:20:41;2.72;;;2.53;;
11996;SDS011;6058;48.704;9.474;2022-08-25T16:23:09;2.90;;;2.35;;
11996;SDS011;6058;48.704;9.474;2022-08-25T16:25:37;2.45;;;2.25;;
11996;SDS011;6058;48.704;9.474;2022-08-25T16:28:05;2.35;;;2.15;;
11996;SDS011;6058;48.704;9.474;2022-08-25T16:30:33;2.38;;;2.20;;
11996;SDS011;6058;48.704;9.474;2022-08-25T16:33:00;2.60;;;2.40;;
11996;SDS011;6058;48.704;9.474;2022-08-25T16:35:27;2.67;;;2.20;;
11996;SDS011;6058;48.704;9.474;2022-08-25T16:37:54;2.63;;;2.42;;
11996;SDS011;6058;48.704;9.474;2022-08-25T16:40:21;2.33;;;2.13;;